sensor_id;sensor_type;location;lat;lon;timestamp;temperature;humidity
29353;DHT22;16344;50.364;8.944;2023-02-15T00:01:54;1.50;1.00
29353;DHT22;16344;50.364;8.944;2023-02-15T00:04:22;1.50;1.00
29353;DHT22;16344;50.364;8.944;2023-02-15T00:06:48;1.60;1.00
29353;DHT22;16344;50.364;8.944;2023-02-15T00:09:14;1.50;1.00
29353;DHT22;16344;50.364;8.944;2023-02-15T00:11:40;1.50;1.00
29353;DHT22;16344;50.364;8.944;2023-02-15T00:14:20;1.50;1.00
29353;DHT22;16344;50.364;8.944;2023-02-15T00:16:46;1.50;1.00
29353;DHT22;16344;50.364;8.944;2023-02-15T00:19:14;1.60;1.00
29353;DHT22;16344;50.364;8.944;2023-02-15T00:21:40;1.70;1.00
29353;DHT22;16344;50.364;8.944;2023-02-15T00:24:07;1.80;1.00
29353;DHT22;16344;50.364;8.944;2023-02-15T00:26:35;1.80;1.00
29353;DHT22;16344;50.364;8.944;2023-02-15T00:29:00;1.70;1.00
29353;DHT22;16344;50.364;8.944;2023-02-15T00:31:28;1.70;1.00
29353;DHT22;16344;50.364;8.944;2023-02-15T00:33:55;1.60;1.00
29353;DHT22;16344;50.364;8.944;2023-02-15T00:36:21;1.40;1.00
29353;DHT22;16344;50.364;8.944;2023-02-15T00:38:46;1.40;1.00
29353;DHT22;16344;50.364;8.944;2023-02-15T00:41:12;1.40;1.00
29353;DHT22;16344;50.364;8.944;2023-02-15T00:43:37;1.40;1.00
29353;DHT22;16344;50.364;8.944;2023-02-15T00:46:04;1.40;1.00
29353;DHT22;16344;50.364;8.944;2023-02-15T00:48:30;1.30;1.00
29353;DHT22;16344;50.364;8.944;2023-02-15T00:50:57;1.40;1.00
29353;DHT22;16344;50.364;8.944;2023-02-15T00:53:24;1.40;1.00
29353;DHT22;16344;50.364;8.944;2023-02-15T00:55:50;1.40;1.00
29353;DHT22;16344;50.364;8.944;2023-02-15T00:58:15;1.30;1.00
29353;DHT22;16344;50.364;8.944;2023-02-15T01:00:43;1.20;1.00
29353;DHT22;16344;50.364;8.944;2023-02-15T01:03:10;1.10;1.00
29353;DHT22;16344;50.364;8.944;2023-02-15T01:05:35;1.10;1.00
29353;DHT22;16344;50.364;8.944;2023-02-15T01:08:01;1.10;1.00
29353;DHT22;16344;50.364;8.944;2023-02-15T01:10:27;1.00;1.00
29353;DHT22;16344;50.364;8.944;2023-02-15T01:12:54;1.00;1.00
29353;DHT22;16344;50.364;8.944;2023-02-15T01:15:20;1.00;1.00
29353;DHT22;16344;50.364;8.944;2023-02-15T01:17:45;1.10;1.00
29353;DHT22;16344;50.364;8.944;2023-02-15T01:20:17;1.10;1.00
29353;DHT22;16344;50.364;8.944;2023-02-15T01:22:43;1.20;1.00
29353;DHT22;16344;50.364;8.944;2023-02-15T01:25:08;1.30;1.00
29353;DHT22;16344;50.364;8.944;2023-02-15T01:27:34;1.30;1.00
29353;DHT22;16344;50.364;8.944;2023-02-15T01:29:59;1.40;1.00
29353;DHT22;16344;50.364;8.944;2023-02-15T01:32:25;1.30;1.00
29353;DHT22;16344;50.364;8.944;2023-02-15T01:34:52;1.40;1.00
29353;DHT22;16344;50.364;8.944;2023-02-15T01:37:18;1.40;1.00
29353;DHT22;16344;50.364;8.944;2023-02-15T01:39:43;1.50;1.00
29353;DHT22;16344;50.364;8.944;2023-02-15T01:42:12;1.50;1.00
29353;DHT22;16344;50.364;8.944;2023-02-15T01:45:05;1.60;1.00
29353;DHT22;16344;50.364;8.944;2023-02-15T01:47:41;1.50;1.00
29353;DHT22;16344;50.364;8.944;2023-02-15T01:52:40;1.50;1.00
29353;DHT22;16344;50.364;8.944;2023-02-15T01:55:08;1.50;1.00
29353;DHT22;16344;50.364;8.944;2023-02-15T01:57:34;1.50;1.00
29353;DHT22;16344;50.364;8.944;2023-02-15T02:00:05;1.50;1.00
29353;DHT22;16344;50.364;8.944;2023-02-15T02:02:31;1.50;1.00
29353;DHT22;16344;50.364;8.944;2023-02-15T02:05:00;1.60;1.00
29353;DHT22;16344;50.364;8.944;2023-02-15T02:07:34;1.70;1.00
29353;DHT22;16344;50.364;8.944;2023-02-15T02:10:02;1.60;1.00
29353;DHT22;16344;50.364;8.944;2023-02-15T02:12:27;1.60;1.00
29353;DHT22;16344;50.364;8.944;2023-02-15T02:14:53;1.60;1.00
29353;DHT22;16344;50.364;8.944;2023-02-15T02:31:24;2.00;1.00
29353;DHT22;16344;50.364;8.944;2023-02-15T02:39:37;2.00;1.00
29353;DHT22;16344;50.364;8.944;2023-02-15T02:42:12;2.00;1.00
29353;DHT22;16344;50.364;8.944;2023-02-15T02:44:43;1.90;1.00
29353;DHT22;16344;50.364;8.944;2023-02-15T02:47:26;1.90;1.00
29353;DHT22;16344;50.364;8.944;2023-02-15T02:50:00;2.00;1.00
29353;DHT22;16344;50.364;8.944;2023-02-15T02:52:42;2.00;1.00
29353;DHT22;16344;50.364;8.944;2023-02-15T02:55:29;2.10;1.00
29353;DHT22;16344;50.364;8.944;2023-02-15T03:00:32;2.10;1.00
29353;DHT22;16344;50.364;8.944;2023-02-15T03:03:06;2.00;1.00
29353;DHT22;16344;50.364;8.944;2023-02-15T03:05:36;2.00;1.00
29353;DHT22;16344;50.364;8.944;2023-02-15T03:08:04;1.90;1.00
29353;DHT22;16344;50.364;8.944;2023-02-15T03:10:31;1.80;1.00
29353;DHT22;16344;50.364;8.944;2023-02-15T03:12:58;1.70;1.00
29353;DHT22;16344;50.364;8.944;2023-02-15T03:15:28;1.80;1.00
29353;DHT22;16344;50.364;8.944;2023-02-15T03:18:17;1.80;1.00
29353;DHT22;16344;50.364;8.944;2023-02-15T03:20:46;1.90;1.00
29353;DHT22;16344;50.364;8.944;2023-02-15T03:23:19;1.90;1.00
29353;DHT22;16344;50.364;8.944;2023-02-15T03:25:50;1.90;1.00
29353;DHT22;16344;50.364;8.944;2023-02-15T03:28:29;1.80;1.00
29353;DHT22;16344;50.364;8.944;2023-02-15T03:31:00;1.80;1.00
29353;DHT22;16344;50.364;8.944;2023-02-15T03:33:26;1.80;1.00
29353;DHT22;16344;50.364;8.944;2023-02-15T03:38:36;1.90;1.00
29353;DHT22;16344;50.364;8.944;2023-02-15T03:41:06;2.00;1.00
29353;DHT22;16344;50.364;8.944;2023-02-15T03:43:55;1.90;1.00
29353;DHT22;16344;50.364;8.944;2023-02-15T03:46:30;2.00;1.00
29353;DHT22;16344;50.364;8.944;2023-02-15T03:49:12;2.00;1.00
29353;DHT22;16344;50.364;8.944;2023-02-15T03:51:40;2.00;1.00
29353;DHT22;16344;50.364;8.944;2023-02-15T03:54:08;2.00;1.00
29353;DHT22;16344;50.364;8.944;2023-02-15T03:56:40;2.00;1.00
29353;DHT22;16344;50.364;8.944;2023-02-15T03:59:07;2.00;1.00
29353;DHT22;16344;50.364;8.944;2023-02-15T04:02:24;2.00;1.00
29353;DHT22;16344;50.364;8.944;2023-02-15T04:04:54;2.10;1.00
29353;DHT22;16344;50.364;8.944;2023-02-15T04:07:19;2.10;1.00
29353;DHT22;16344;50.364;8.944;2023-02-15T04:09:45;2.10;1.00
29353;DHT22;16344;50.364;8.944;2023-02-15T04:12:29;2.20;1.00
29353;DHT22;16344;50.364;8.944;2023-02-15T04:14:55;2.20;1.00
29353;DHT22;16344;50.364;8.944;2023-02-15T04:17:39;2.20;1.00
29353;DHT22;16344;50.364;8.944;2023-02-15T04:20:05;2.10;1.00
29353;DHT22;16344;50.364;8.944;2023-02-15T04:22:50;2.00;1.00
29353;DHT22;16344;50.364;8.944;2023-02-15T04:25:34;1.90;1.00
29353;DHT22;16344;50.364;8.944;2023-02-15T04:27:59;1.70;1.00
29353;DHT22;16344;50.364;8.944;2023-02-15T04:30:25;1.50;1.00
29353;DHT22;16344;50.364;8.944;2023-02-15T04:32:51;1.40;1.00
29353;DHT22;16344;50.364;8.944;2023-02-15T04:35:18;1.30;1.00
29353;DHT22;16344;50.364;8.944;2023-02-15T04:37:44;1.30;1.00
29353;DHT22;16344;50.364;8.944;2023-02-15T04:40:15;1.20;1.00
29353;DHT22;16344;50.364;8.944;2023-02-15T04:42:40;1.30;1.00
29353;DHT22;16344;50.364;8.944;2023-02-15T04:45:06;1.40;1.00
29353;DHT22;16344;50.364;8.944;2023-02-15T04:47:33;1.40;1.00
29353;DHT22;16344;50.364;8.944;2023-02-15T04:49:58;1.40;1.00
29353;DHT22;16344;50.364;8.944;2023-02-15T04:52:24;1.40;1.00
29353;DHT22;16344;50.364;8.944;2023-02-15T04:54:49;1.40;1.00
29353;DHT22;16344;50.364;8.944;2023-02-15T04:57:15;1.40;1.00
29353;DHT22;16344;50.364;8.944;2023-02-15T04:59:40;1.40;1.00
29353;DHT22;16344;50.364;8.944;2023-02-15T05:02:06;1.50;1.00
29353;DHT22;16344;50.364;8.944;2023-02-15T05:04:32;1.50;1.00
29353;DHT22;16344;50.364;8.944;2023-02-15T05:06:57;1.50;1.00
29353;DHT22;16344;50.364;8.944;2023-02-15T05:09:23;1.40;1.00
29353;DHT22;16344;50.364;8.944;2023-02-15T05:11:48;1.30;1.00
29353;DHT22;16344;50.364;8.944;2023-02-15T05:14:14;1.40;1.00
29353;DHT22;16344;50.364;8.944;2023-02-15T05:16:39;1.40;1.00
29353;DHT22;16344;50.364;8.944;2023-02-15T05:19:05;1.50;1.00
29353;DHT22;16344;50.364;8.944;2023-02-15T05:21:31;1.50;1.00
29353;DHT22;16344;50.364;8.944;2023-02-15T05:23:57;1.40;1.00
29353;DHT22;16344;50.364;8.944;2023-02-15T05:26:24;1.50;1.00
29353;DHT22;16344;50.364;8.944;2023-02-15T05:29:09;1.60;1.00
29353;DHT22;16344;50.364;8.944;2023-02-15T05:31:34;1.50;1.00
29353;DHT22;16344;50.364;8.944;2023-02-15T05:34:00;1.50;1.00
29353;DHT22;16344;50.364;8.944;2023-02-15T05:36:26;1.40;1.00
29353;DHT22;16344;50.364;8.944;2023-02-15T05:38:52;1.50;1.00
29353;DHT22;16344;50.364;8.944;2023-02-15T05:41:17;1.50;1.00
29353;DHT22;16344;50.364;8.944;2023-02-15T05:43:43;1.60;1.00
29353;DHT22;16344;50.364;8.944;2023-02-15T05:46:09;1.60;1.00
29353;DHT22;16344;50.364;8.944;2023-02-15T05:48:35;1.60;1.00
29353;DHT22;16344;50.364;8.944;2023-02-15T05:51:09;1.60;1.00
29353;DHT22;16344;50.364;8.944;2023-02-15T05:53:37;1.50;1.00
29353;DHT22;16344;50.364;8.944;2023-02-15T05:56:04;1.50;1.00
29353;DHT22;16344;50.364;8.944;2023-02-15T05:58:38;1.50;1.00
29353;DHT22;16344;50.364;8.944;2023-02-15T06:01:13;1.50;1.00
29353;DHT22;16344;50.364;8.944;2023-02-15T06:03:38;1.40;1.00
29353;DHT22;16344;50.364;8.944;2023-02-15T06:06:04;1.40;1.00
29353;DHT22;16344;50.364;8.944;2023-02-15T06:08:31;1.30;1.00
29353;DHT22;16344;50.364;8.944;2023-02-15T06:10:56;1.30;1.00
29353;DHT22;16344;50.364;8.944;2023-02-15T06:13:22;1.30;1.00
29353;DHT22;16344;50.364;8.944;2023-02-15T06:15:47;1.40;1.00
29353;DHT22;16344;50.364;8.944;2023-02-15T06:18:13;1.50;1.00
29353;DHT22;16344;50.364;8.944;2023-02-15T06:20:38;1.40;1.00
29353;DHT22;16344;50.364;8.944;2023-02-15T06:23:04;1.40;1.00
29353;DHT22;16344;50.364;8.944;2023-02-15T06:25:29;1.50;1.00
29353;DHT22;16344;50.364;8.944;2023-02-15T06:27:55;1.60;1.00
29353;DHT22;16344;50.364;8.944;2023-02-15T06:30:20;1.60;1.00
29353;DHT22;16344;50.364;8.944;2023-02-15T06:32:46;1.60;1.00
29353;DHT22;16344;50.364;8.944;2023-02-15T06:35:11;1.60;1.00
29353;DHT22;16344;50.364;8.944;2023-02-15T06:37:37;1.50;1.00
29353;DHT22;16344;50.364;8.944;2023-02-15T06:40:03;1.60;1.00
29353;DHT22;16344;50.364;8.944;2023-02-15T06:42:29;1.40;1.00
29353;DHT22;16344;50.364;8.944;2023-02-15T06:44:55;1.30;1.00
29353;DHT22;16344;50.364;8.944;2023-02-15T06:47:21;1.30;1.00
29353;DHT22;16344;50.364;8.944;2023-02-15T06:49:46;1.20;1.00
29353;DHT22;16344;50.364;8.944;2023-02-15T06:52:12;1.20;1.00
29353;DHT22;16344;50.364;8.944;2023-02-15T06:54:37;1.10;1.00
29353;DHT22;16344;50.364;8.944;2023-02-15T06:57:03;1.20;1.00
29353;DHT22;16344;50.364;8.944;2023-02-15T06:59:28;1.20;1.00
29353;DHT22;16344;50.364;8.944;2023-02-15T07:01:54;1.20;1.00
29353;DHT22;16344;50.364;8.944;2023-02-15T07:04:19;1.20;1.00
29353;DHT22;16344;50.364;8.944;2023-02-15T07:06:45;1.10;1.00
29353;DHT22;16344;50.364;8.944;2023-02-15T07:09:11;1.10;1.00
29353;DHT22;16344;50.364;8.944;2023-02-15T07:11:38;1.10;1.00
29353;DHT22;16344;50.364;8.944;2023-02-15T07:14:21;1.10;1.00
29353;DHT22;16344;50.364;8.944;2023-02-15T07:16:47;2.50;15.70
29353;DHT22;16344;50.364;8.944;2023-02-15T07:19:13;2.10;9.90
29353;DHT22;16344;50.364;8.944;2023-02-15T07:21:38;1.90;1.00
29353;DHT22;16344;50.364;8.944;2023-02-15T07:24:04;1.70;1.00
29353;DHT22;16344;50.364;8.944;2023-02-15T07:26:31;1.60;1.00
29353;DHT22;16344;50.364;8.944;2023-02-15T07:28:57;1.60;1.00
29353;DHT22;16344;50.364;8.944;2023-02-15T07:31:22;1.50;1.00
29353;DHT22;16344;50.364;8.944;2023-02-15T07:33:48;1.50;1.00
29353;DHT22;16344;50.364;8.944;2023-02-15T07:36:13;1.40;1.00
29353;DHT22;16344;50.364;8.944;2023-02-15T07:38:40;1.40;1.00
29353;DHT22;16344;50.364;8.944;2023-02-15T07:41:08;1.30;1.00
29353;DHT22;16344;50.364;8.944;2023-02-15T07:43:36;1.40;1.00
29353;DHT22;16344;50.364;8.944;2023-02-15T07:46:04;1.30;1.00
29353;DHT22;16344;50.364;8.944;2023-02-15T07:48:33;1.30;1.00
29353;DHT22;16344;50.364;8.944;2023-02-15T07:51:04;1.20;1.00
29353;DHT22;16344;50.364;8.944;2023-02-15T07:53:30;1.20;1.00
29353;DHT22;16344;50.364;8.944;2023-02-15T07:55:59;1.10;1.00
29353;DHT22;16344;50.364;8.944;2023-02-15T07:58:25;1.10;1.00
29353;DHT22;16344;50.364;8.944;2023-02-15T08:01:10;1.10;1.00
29353;DHT22;16344;50.364;8.944;2023-02-15T08:03:36;1.00;1.00
29353;DHT22;16344;50.364;8.944;2023-02-15T08:06:02;1.00;1.00
29353;DHT22;16344;50.364;8.944;2023-02-15T08:08:27;1.00;2.20
29353;DHT22;16344;50.364;8.944;2023-02-15T08:13:56;1.60;6.70
29353;DHT22;16344;50.364;8.944;2023-02-15T08:16:29;1.80;6.60
29353;DHT22;16344;50.364;8.944;2023-02-15T08:18:57;1.80;1.00
29353;DHT22;16344;50.364;8.944;2023-02-15T08:21:24;1.80;1.00
29353;DHT22;16344;50.364;8.944;2023-02-15T08:23:50;1.80;1.00
29353;DHT22;16344;50.364;8.944;2023-02-15T08:26:16;1.60;1.00
29353;DHT22;16344;50.364;8.944;2023-02-15T08:28:42;1.40;1.00
29353;DHT22;16344;50.364;8.944;2023-02-15T08:31:10;1.30;1.00
29353;DHT22;16344;50.364;8.944;2023-02-15T08:33:37;1.50;1.00
29353;DHT22;16344;50.364;8.944;2023-02-15T08:36:16;1.50;1.00
29353;DHT22;16344;50.364;8.944;2023-02-15T08:38:42;1.50;1.00
29353;DHT22;16344;50.364;8.944;2023-02-15T08:41:16;1.40;1.00
29353;DHT22;16344;50.364;8.944;2023-02-15T08:43:43;1.50;1.00
29353;DHT22;16344;50.364;8.944;2023-02-15T08:46:10;1.40;1.00
29353;DHT22;16344;50.364;8.944;2023-02-15T08:48:36;1.50;2.10
29353;DHT22;16344;50.364;8.944;2023-02-15T08:51:17;1.50;3.10
29353;DHT22;16344;50.364;8.944;2023-02-15T08:53:45;1.60;3.50
29353;DHT22;16344;50.364;8.944;2023-02-15T08:56:11;1.70;2.80
29353;DHT22;16344;50.364;8.944;2023-02-15T08:58:38;1.60;1.00
29353;DHT22;16344;50.364;8.944;2023-02-15T09:01:17;1.60;1.00
29353;DHT22;16344;50.364;8.944;2023-02-15T09:03:45;1.70;1.70
29353;DHT22;16344;50.364;8.944;2023-02-15T09:06:11;1.80;2.20
29353;DHT22;16344;50.364;8.944;2023-02-15T09:08:37;1.80;1.00
29353;DHT22;16344;50.364;8.944;2023-02-15T09:11:10;1.80;1.00
29353;DHT22;16344;50.364;8.944;2023-02-15T09:13:37;1.70;1.00
29353;DHT22;16344;50.364;8.944;2023-02-15T09:16:05;1.70;1.00
29353;DHT22;16344;50.364;8.944;2023-02-15T09:18:33;1.80;1.00
29353;DHT22;16344;50.364;8.944;2023-02-15T09:21:09;1.80;1.00
29353;DHT22;16344;50.364;8.944;2023-02-15T09:23:36;1.80;1.00
29353;DHT22;16344;50.364;8.944;2023-02-15T09:26:10;1.80;1.00
29353;DHT22;16344;50.364;8.944;2023-02-15T09:28:36;1.90;1.00
29353;DHT22;16344;50.364;8.944;2023-02-15T09:31:29;1.80;1.00
29353;DHT22;16344;50.364;8.944;2023-02-15T09:33:55;1.80;1.00
29353;DHT22;16344;50.364;8.944;2023-02-15T09:36:26;1.90;1.00
29353;DHT22;16344;50.364;8.944;2023-02-15T09:38:55;1.90;1.00
29353;DHT22;16344;50.364;8.944;2023-02-15T09:47:27;1.80;1.00
29353;DHT22;16344;50.364;8.944;2023-02-15T09:55:55;1.90;2.60
29353;DHT22;16344;50.364;8.944;2023-02-15T10:04:04;2.00;1.00
29353;DHT22;16344;50.364;8.944;2023-02-15T10:22:45;2.20;1.00
29353;DHT22;16344;50.364;8.944;2023-02-15T10:27:45;2.10;1.00
29353;DHT22;16344;50.364;8.944;2023-02-15T10:30:14;2.10;1.00
29353;DHT22;16344;50.364;8.944;2023-02-15T10:33:01;2.20;1.00
29353;DHT22;16344;50.364;8.944;2023-02-15T10:35:40;2.30;1.00
29353;DHT22;16344;50.364;8.944;2023-02-15T10:44:11;2.40;1.00
29353;DHT22;16344;50.364;8.944;2023-02-15T10:52:38;2.50;1.00
29353;DHT22;16344;50.364;8.944;2023-02-15T11:06:06;2.60;1.00
29353;DHT22;16344;50.364;8.944;2023-02-15T11:08:37;2.70;1.00
29353;DHT22;16344;50.364;8.944;2023-02-15T11:11:10;2.60;1.00
29353;DHT22;16344;50.364;8.944;2023-02-15T11:13:41;2.70;1.00
29353;DHT22;16344;50.364;8.944;2023-02-15T11:16:20;2.70;1.00
29353;DHT22;16344;50.364;8.944;2023-02-15T11:19:01;2.70;1.00
29353;DHT22;16344;50.364;8.944;2023-02-15T11:21:32;2.70;1.00
29353;DHT22;16344;50.364;8.944;2023-02-15T11:24:12;2.80;1.00
29353;DHT22;16344;50.364;8.944;2023-02-15T11:26:45;2.90;1.00
29353;DHT22;16344;50.364;8.944;2023-02-15T11:29:30;2.90;1.00
29353;DHT22;16344;50.364;8.944;2023-02-15T11:32:01;3.00;1.00
29353;DHT22;16344;50.364;8.944;2023-02-15T11:34:40;3.10;1.00
29353;DHT22;16344;50.364;8.944;2023-02-15T11:37:18;3.20;1.00
29353;DHT22;16344;50.364;8.944;2023-02-15T11:39:44;3.20;1.00
29353;DHT22;16344;50.364;8.944;2023-02-15T11:42:20;3.30;1.00
29353;DHT22;16344;50.364;8.944;2023-02-15T11:47:32;3.30;1.00
29353;DHT22;16344;50.364;8.944;2023-02-15T11:49:57;3.20;1.00
29353;DHT22;16344;50.364;8.944;2023-02-15T11:52:23;3.20;1.00
29353;DHT22;16344;50.364;8.944;2023-02-15T11:54:50;3.10;1.00
29353;DHT22;16344;50.364;8.944;2023-02-15T11:57:23;3.10;1.00
29353;DHT22;16344;50.364;8.944;2023-02-15T12:00:06;3.00;1.00
29353;DHT22;16344;50.364;8.944;2023-02-15T12:02:37;3.10;1.00
29353;DHT22;16344;50.364;8.944;2023-02-15T12:05:10;3.10;1.00
29353;DHT22;16344;50.364;8.944;2023-02-15T12:07:55;3.20;1.00
29353;DHT22;16344;50.364;8.944;2023-02-15T12:10:28;3.10;1.00
29353;DHT22;16344;50.364;8.944;2023-02-15T12:13:14;3.10;1.00
29353;DHT22;16344;50.364;8.944;2023-02-15T12:15:49;3.10;1.00
29353;DHT22;16344;50.364;8.944;2023-02-15T12:18:35;3.10;1.00
29353;DHT22;16344;50.364;8.944;2023-02-15T12:21:07;3.10;1.00
29353;DHT22;16344;50.364;8.944;2023-02-15T12:23:34;3.20;1.00
29353;DHT22;16344;50.364;8.944;2023-02-15T12:26:05;3.20;1.00
29353;DHT22;16344;50.364;8.944;2023-02-15T12:28:34;3.20;1.00
29353;DHT22;16344;50.364;8.944;2023-02-15T12:31:03;3.20;1.00
29353;DHT22;16344;50.364;8.944;2023-02-15T12:33:38;3.20;1.00
29353;DHT22;16344;50.364;8.944;2023-02-15T12:36:12;3.20;1.00
29353;DHT22;16344;50.364;8.944;2023-02-15T12:38:40;3.20;1.00
29353;DHT22;16344;50.364;8.944;2023-02-15T12:41:21;3.20;1.00
29353;DHT22;16344;50.364;8.944;2023-02-15T12:44:06;3.20;1.00
29353;DHT22;16344;50.364;8.944;2023-02-15T12:46:34;3.20;1.00
29353;DHT22;16344;50.364;8.944;2023-02-15T12:49:16;3.20;1.00
29353;DHT22;16344;50.364;8.944;2023-02-15T12:51:56;3.20;1.00
29353;DHT22;16344;50.364;8.944;2023-02-15T12:54:32;3.20;1.00
29353;DHT22;16344;50.364;8.944;2023-02-15T13:00:00;3.40;1.00
29353;DHT22;16344;50.364;8.944;2023-02-15T13:02:29;3.40;1.00
29353;DHT22;16344;50.364;8.944;2023-02-15T13:04:57;3.40;1.00
29353;DHT22;16344;50.364;8.944;2023-02-15T13:07:29;3.30;1.00
29353;DHT22;16344;50.364;8.944;2023-02-15T13:09:56;3.30;1.00
29353;DHT22;16344;50.364;8.944;2023-02-15T13:12:27;3.30;1.00
29353;DHT22;16344;50.364;8.944;2023-02-15T13:14:56;3.40;1.00
29353;DHT22;16344;50.364;8.944;2023-02-15T13:17:26;3.40;1.00
29353;DHT22;16344;50.364;8.944;2023-02-15T13:19:54;3.50;1.00
29353;DHT22;16344;50.364;8.944;2023-02-15T13:22:33;3.30;1.00
29353;DHT22;16344;50.364;8.944;2023-02-15T13:25:09;3.30;1.00
29353;DHT22;16344;50.364;8.944;2023-02-15T13:27:41;3.30;1.00
29353;DHT22;16344;50.364;8.944;2023-02-15T13:30:42;3.40;1.00
29353;DHT22;16344;50.364;8.944;2023-02-15T13:33:19;3.40;1.00
29353;DHT22;16344;50.364;8.944;2023-02-15T13:38:43;3.40;1.00
29353;DHT22;16344;50.364;8.944;2023-02-15T13:41:23;3.40;1.00
29353;DHT22;16344;50.364;8.944;2023-02-15T13:47:04;3.50;1.00
29353;DHT22;16344;50.364;8.944;2023-02-15T13:52:44;3.50;1.00
29353;DHT22;16344;50.364;8.944;2023-02-15T13:55:29;3.40;1.00
29353;DHT22;16344;50.364;8.944;2023-02-15T14:01:09;3.50;1.00
29353;DHT22;16344;50.364;8.944;2023-02-15T14:04:08;3.50;1.00
29353;DHT22;16344;50.364;8.944;2023-02-15T14:06:52;3.70;1.00
29353;DHT22;16344;50.364;8.944;2023-02-15T14:12:49;3.70;1.00
29353;DHT22;16344;50.364;8.944;2023-02-15T14:15:44;3.70;1.00
29353;DHT22;16344;50.364;8.944;2023-02-15T14:18:29;3.80;1.00
29353;DHT22;16344;50.364;8.944;2023-02-15T14:21:31;3.90;1.00
29353;DHT22;16344;50.364;8.944;2023-02-15T14:24:14;3.90;1.00
29353;DHT22;16344;50.364;8.944;2023-02-15T14:26:55;4.00;1.00
29353;DHT22;16344;50.364;8.944;2023-02-15T14:29:41;4.10;1.00
29353;DHT22;16344;50.364;8.944;2023-02-15T14:32:14;4.10;1.00
29353;DHT22;16344;50.364;8.944;2023-02-15T14:34:44;4.20;1.00
29353;DHT22;16344;50.364;8.944;2023-02-15T14:37:12;4.20;1.00
29353;DHT22;16344;50.364;8.944;2023-02-15T14:40:00;4.30;1.00
29353;DHT22;16344;50.364;8.944;2023-02-15T14:42:58;4.20;1.00
29353;DHT22;16344;50.364;8.944;2023-02-15T14:45:41;4.20;1.00
29353;DHT22;16344;50.364;8.944;2023-02-15T14:48:20;4.30;1.00
29353;DHT22;16344;50.364;8.944;2023-02-15T14:50:47;4.20;1.00
29353;DHT22;16344;50.364;8.944;2023-02-15T15:01:33;4.30;1.00
29353;DHT22;16344;50.364;8.944;2023-02-15T15:04:06;4.30;1.00
29353;DHT22;16344;50.364;8.944;2023-02-15T15:06:36;4.30;1.00
29353;DHT22;16344;50.364;8.944;2023-02-15T15:09:19;4.30;1.00
29353;DHT22;16344;50.364;8.944;2023-02-15T15:11:48;4.40;1.00
29353;DHT22;16344;50.364;8.944;2023-02-15T15:17:02;4.40;1.00
29353;DHT22;16344;50.364;8.944;2023-02-15T15:22:28;4.30;1.00
29353;DHT22;16344;50.364;8.944;2023-02-15T15:24:56;4.30;1.00
29353;DHT22;16344;50.364;8.944;2023-02-15T15:41:15;4.40;1.00
29353;DHT22;16344;50.364;8.944;2023-02-15T15:50:12;4.40;1.00
29353;DHT22;16344;50.364;8.944;2023-02-15T15:52:38;4.40;1.00
29353;DHT22;16344;50.364;8.944;2023-02-15T15:55:17;4.40;1.00
29353;DHT22;16344;50.364;8.944;2023-02-15T15:57:45;4.40;1.00
29353;DHT22;16344;50.364;8.944;2023-02-15T16:00:43;4.40;1.00
29353;DHT22;16344;50.364;8.944;2023-02-15T16:05:45;4.30;1.00
29353;DHT22;16344;50.364;8.944;2023-02-15T16:08:11;4.30;1.00
29353;DHT22;16344;50.364;8.944;2023-02-15T16:10:36;4.30;1.00
29353;DHT22;16344;50.364;8.944;2023-02-15T16:13:04;4.20;1.00
29353;DHT22;16344;50.364;8.944;2023-02-15T16:18:02;4.10;1.00
29353;DHT22;16344;50.364;8.944;2023-02-15T16:20:31;4.00;1.00
29353;DHT22;16344;50.364;8.944;2023-02-15T16:23:12;3.90;1.00
29353;DHT22;16344;50.364;8.944;2023-02-15T16:28:19;3.70;1.00
29353;DHT22;16344;50.364;8.944;2023-02-15T16:30:45;3.70;1.00
29353;DHT22;16344;50.364;8.944;2023-02-15T16:33:17;3.60;1.00
29353;DHT22;16344;50.364;8.944;2023-02-15T16:35:57;3.60;1.00
29353;DHT22;16344;50.364;8.944;2023-02-15T16:41:24;3.60;1.00
29353;DHT22;16344;50.364;8.944;2023-02-15T16:43:50;3.50;1.00
29353;DHT22;16344;50.364;8.944;2023-02-15T16:46:27;3.50;1.00
29353;DHT22;16344;50.364;8.944;2023-02-15T16:48:56;3.50;1.00
29353;DHT22;16344;50.364;8.944;2023-02-15T16:51:28;3.50;1.00
29353;DHT22;16344;50.364;8.944;2023-02-15T16:53:56;3.50;1.00
29353;DHT22;16344;50.364;8.944;2023-02-15T16:56:27;3.60;1.00
29353;DHT22;16344;50.364;8.944;2023-02-15T16:58:56;3.60;1.00
29353;DHT22;16344;50.364;8.944;2023-02-15T17:01:25;3.50;1.00
29353;DHT22;16344;50.364;8.944;2023-02-15T17:04:12;3.50;1.00
29353;DHT22;16344;50.364;8.944;2023-02-15T17:06:37;3.50;1.00
29353;DHT22;16344;50.364;8.944;2023-02-15T17:09:14;3.50;1.00
29353;DHT22;16344;50.364;8.944;2023-02-15T17:11:43;3.50;1.00
29353;DHT22;16344;50.364;8.944;2023-02-15T17:14:10;3.40;1.00
29353;DHT22;16344;50.364;8.944;2023-02-15T17:16:42;3.50;1.00
29353;DHT22;16344;50.364;8.944;2023-02-15T17:19:15;3.40;1.00
29353;DHT22;16344;50.364;8.944;2023-02-15T17:21:52;3.40;1.00
29353;DHT22;16344;50.364;8.944;2023-02-15T17:24:40;3.30;1.00
29353;DHT22;16344;50.364;8.944;2023-02-15T17:27:12;3.40;1.00
29353;DHT22;16344;50.364;8.944;2023-02-15T17:29:45;3.30;1.00
29353;DHT22;16344;50.364;8.944;2023-02-15T17:32:16;3.40;1.00
29353;DHT22;16344;50.364;8.944;2023-02-15T17:35:05;3.40;1.00
29353;DHT22;16344;50.364;8.944;2023-02-15T17:40:29;3.40;1.00
29353;DHT22;16344;50.364;8.944;2023-02-15T17:42:54;3.40;1.00
29353;DHT22;16344;50.364;8.944;2023-02-15T17:45:20;3.40;1.00
29353;DHT22;16344;50.364;8.944;2023-02-15T17:47:48;3.40;1.00
29353;DHT22;16344;50.364;8.944;2023-02-15T17:50:32;3.30;1.00
29353;DHT22;16344;50.364;8.944;2023-02-15T17:52:59;3.20;1.00
29353;DHT22;16344;50.364;8.944;2023-02-15T17:55:26;3.20;1.00
29353;DHT22;16344;50.364;8.944;2023-02-15T17:58:15;3.30;1.00
29353;DHT22;16344;50.364;8.944;2023-02-15T18:00:49;3.30;1.00
29353;DHT22;16344;50.364;8.944;2023-02-15T18:03:43;3.20;1.00
29353;DHT22;16344;50.364;8.944;2023-02-15T18:06:28;3.20;1.00
29353;DHT22;16344;50.364;8.944;2023-02-15T18:09:14;3.00;1.00
29353;DHT22;16344;50.364;8.944;2023-02-15T18:11:58;3.10;1.00
29353;DHT22;16344;50.364;8.944;2023-02-15T18:14:24;3.20;1.00
29353;DHT22;16344;50.364;8.944;2023-02-15T18:16:50;3.20;1.00
29353;DHT22;16344;50.364;8.944;2023-02-15T18:19:18;3.30;1.00
29353;DHT22;16344;50.364;8.944;2023-02-15T18:21:45;3.20;1.00
29353;DHT22;16344;50.364;8.944;2023-02-15T18:24:19;3.30;1.00
29353;DHT22;16344;50.364;8.944;2023-02-15T18:26:46;3.30;1.00
29353;DHT22;16344;50.364;8.944;2023-02-15T18:29:12;3.30;1.00
29353;DHT22;16344;50.364;8.944;2023-02-15T18:31:38;3.10;1.00
29353;DHT22;16344;50.364;8.944;2023-02-15T18:34:05;3.20;1.00
29353;DHT22;16344;50.364;8.944;2023-02-15T18:36:39;3.10;1.00
29353;DHT22;16344;50.364;8.944;2023-02-15T18:39:32;3.00;1.00
29353;DHT22;16344;50.364;8.944;2023-02-15T18:41:58;2.90;1.00
29353;DHT22;16344;50.364;8.944;2023-02-15T18:44:25;2.70;1.00
29353;DHT22;16344;50.364;8.944;2023-02-15T18:46:51;2.70;1.00
29353;DHT22;16344;50.364;8.944;2023-02-15T18:49:16;2.70;1.00
29353;DHT22;16344;50.364;8.944;2023-02-15T18:51:43;2.80;1.00
29353;DHT22;16344;50.364;8.944;2023-02-15T18:54:21;2.80;1.00
29353;DHT22;16344;50.364;8.944;2023-02-15T18:56:56;2.80;1.00
29353;DHT22;16344;50.364;8.944;2023-02-15T18:59:24;2.80;1.00
29353;DHT22;16344;50.364;8.944;2023-02-15T19:01:50;2.70;1.00
29353;DHT22;16344;50.364;8.944;2023-02-15T19:04:17;2.70;1.00
29353;DHT22;16344;50.364;8.944;2023-02-15T19:06:45;2.80;1.00